sim
Sign-in with your pilot id or email,
or register
Callsign
Passwort

Schedule Details

Flight Number: DLH2209
Departure: Dusseldorf International Airport (EDDL) at 10:25
Arrival: Munich Airport (EDDM) at 11:35
Route: Lufthansa Passenger Schedule. Enter filed route here before submitting Pirep.

Weather Information
Getting current METAR information for EDDL 210220Z 10002KT CAVOK 10/07 Q1016 NOSIG
Getting current METAR information for EDDM 210220Z VRB02KT CAVOK 09/09 Q1016 NOSIG

Schedule Frequency

Route Map